Cairns International Airport


Codes: YBCS/CNS
Name: Cairns International Airport
City: Cairns
Country: Australia
Elevation: 10 ft.
Wikipedia:

Photos at Cairns International Airport


   Photos courtesy of SpottingLog. You can add your own sightings and photos by signing up for a free trial today.



VH-QPI, 17-Dec-2006
© Sharanpal Gill

VH-VBR, 17-Dec-2006
© Sharanpal Gill


Weather at Cairns International Airport


Time (UTC)DescriptionTempratureWindCloud coverageVisibilityPressureHumidity
21-Jun-2024 12:00Broken Clouds23°C9 mph, S75%10000m1016hPa84%
21-Jun-2024 15:00Broken Clouds22°C7 mph, S75%10000m1016hPa85%
21-Jun-2024 18:00Broken Clouds22°C7 mph, S84%10000m1017hPa80%
21-Jun-2024 21:00Overcast Clouds21°C9 mph, S100%10000m1018hPa82%
22-Jun-2024 00:00Overcast Clouds23°C9 mph, SE100%10000m1019hPa73%
22-Jun-2024 03:00Overcast Clouds23°C9 mph, SE89%10000m1016hPa75%
22-Jun-2024 06:00Overcast Clouds25°C9 mph, SE92%10000m1015hPa68%
22-Jun-2024 09:00Overcast Clouds22°C9 mph, SE85%10000m1016hPa81%
22-Jun-2024 12:00Overcast Clouds22°C9 mph, S92%10000m1017hPa83%
22-Jun-2024 15:00Overcast Clouds21°C7 mph, S100%10000m1016hPa84%
22-Jun-2024 18:00Overcast Clouds20°C7 mph, S85%10000m1015hPa89%
22-Jun-2024 21:00Few Clouds20°C7 mph, S18%10000m1016hPa87%
23-Jun-2024 00:00Clear Sky25°C9 mph, SE9%10000m1017hPa70%
23-Jun-2024 03:00Clear Sky26°C11 mph, SE5%10000m1014hPa64%
23-Jun-2024 06:00Clear Sky25°C11 mph, SE2%10000m1013hPa70%
23-Jun-2024 09:00Clear Sky21°C9 mph, SE1%10000m1015hPa89%
23-Jun-2024 12:00Scattered Clouds22°C9 mph, SE29%10000m1016hPa85%
23-Jun-2024 15:00Light Rain21°C7 mph, SE45%10000m1014hPa88%
23-Jun-2024 18:00Light Rain20°C7 mph, S28%10000m1014hPa90%
23-Jun-2024 21:00Light Rain20°C7 mph, S31%10000m1014hPa90%
24-Jun-2024 00:00Light Rain24°C9 mph, SE32%10000m1016hPa73%
24-Jun-2024 03:00Light Rain25°C11 mph, SE27%10000m1013hPa65%
24-Jun-2024 06:00Scattered Clouds24°C11 mph, SE28%10000m1012hPa68%
24-Jun-2024 09:00Scattered Clouds21°C9 mph, SE30%10000m1014hPa84%
24-Jun-2024 12:00Scattered Clouds21°C9 mph, SE27%10000m1016hPa85%
24-Jun-2024 15:00Scattered Clouds21°C7 mph, S36%10000m1015hPa85%
24-Jun-2024 18:00Scattered Clouds20°C7 mph, S35%10000m1014hPa88%
24-Jun-2024 21:00Scattered Clouds20°C9 mph, S45%10000m1014hPa88%
25-Jun-2024 00:00Few Clouds25°C9 mph, SE23%10000m1016hPa68%
25-Jun-2024 03:00Broken Clouds26°C9 mph, SE60%10000m1014hPa68%
25-Jun-2024 06:00Broken Clouds25°C9 mph, SE79%10000m1013hPa72%
25-Jun-2024 09:00Overcast Clouds23°C9 mph, SE90%10000m1014hPa83%
25-Jun-2024 12:00Light Rain23°C7 mph, S95%10000m1016hPa83%
25-Jun-2024 15:00Light Rain22°C7 mph, S100%10000m1014hPa91%
25-Jun-2024 18:00Light Rain22°C7 mph, S100%10000m1015hPa92%
25-Jun-2024 21:00Overcast Clouds23°C7 mph, S98%10000m1016hPa92%
26-Jun-2024 00:00Overcast Clouds24°C7 mph, SE98%10000m1016hPa86%
26-Jun-2024 03:00Overcast Clouds26°C9 mph, SE99%10000m1014hPa80%
26-Jun-2024 06:00Light Rain26°C7 mph, SE96%10000m1013hPa83%
26-Jun-2024 09:00Broken Clouds24°C7 mph, SE69%10000m1015hPa92%